createdAt,value
2022-08-12T00:04:54.603Z,24.00
2022-08-12T00:10:16.856Z,24.00
2022-08-12T00:15:39.426Z,24.00
2022-08-12T00:21:02.308Z,24.00
2022-08-12T00:26:24.745Z,23.80
2022-08-12T00:31:47.079Z,23.70
2022-08-12T00:37:14.895Z,23.80
2022-08-12T00:42:19.668Z,23.70
2022-08-12T00:47:25.467Z,23.60
2022-08-12T00:52:28.324Z,23.60
2022-08-12T00:57:37.076Z,23.40
2022-08-12T01:02:46.121Z,23.50
2022-08-12T01:08:09.755Z,23.40
2022-08-12T01:13:19.288Z,23.40
2022-08-12T01:18:25.030Z,23.10
2022-08-12T01:24:29.465Z,23.20
2022-08-12T01:29:33.147Z,23.00
2022-08-12T01:34:38.587Z,23.00
2022-08-12T01:40:31.677Z,23.10
2022-08-12T01:45:04.503Z,23.10
2022-08-12T01:50:27.338Z,22.80
2022-08-12T01:55:33.556Z,22.70
2022-08-12T02:00:54.918Z,22.40
2022-08-12T02:06:42.503Z,22.50
2022-08-12T02:11:59.479Z,22.60
2022-08-12T02:17:54.500Z,22.60
2022-08-12T02:22:47.389Z,22.70
2022-08-12T02:27:51.983Z,22.80
2022-08-12T02:32:56.484Z,22.60
2022-08-12T02:38:01.298Z,22.40
2022-08-12T02:43:05.932Z,22.20
2022-08-12T02:48:10.627Z,22.10
2022-08-12T02:53:13.788Z,22.10
2022-08-12T02:58:16.743Z,22.20
2022-08-12T03:03:27.162Z,22.00
2022-08-12T03:08:35.040Z,21.70
2022-08-12T03:13:42.423Z,21.70
2022-08-12T03:18:46.147Z,21.60
2022-08-12T03:23:48.952Z,21.30
2022-08-12T03:28:54.312Z,21.40
2022-08-12T03:34:03.052Z,21.40
2022-08-12T03:39:36.424Z,21.30
2022-08-12T03:45:14.730Z,21.40
2022-08-12T03:50:37.748Z,21.30
2022-08-12T03:56:00.475Z,21.60
2022-08-12T04:01:02.844Z,21.70
2022-08-12T04:06:05.427Z,21.70
2022-08-12T04:11:32.059Z,21.70
2022-08-12T04:16:35.999Z,21.90
2022-08-12T04:21:42.032Z,21.70
2022-08-12T04:26:46.409Z,21.80
2022-08-12T04:31:50.683Z,22.00
2022-08-12T04:36:53.939Z,22.30
2022-08-12T04:42:00.244Z,22.40
2022-08-12T04:47:02.552Z,22.50
2022-08-12T04:52:05.489Z,22.50
2022-08-12T04:57:09.879Z,22.50
2022-08-12T05:02:16.935Z,22.50
2022-08-12T05:07:23.474Z,22.60
2022-08-12T05:12:28.560Z,22.80
2022-08-12T05:17:30.843Z,23.00
2022-08-12T05:22:37.130Z,23.10
2022-08-12T05:27:40.398Z,23.00
2022-08-12T05:33:06.811Z,23.20
2022-08-12T05:38:29.841Z,23.30
2022-08-12T05:43:34.445Z,23.40
2022-08-12T05:48:36.717Z,23.40
2022-08-12T05:53:40.986Z,23.40
2022-08-12T05:58:43.258Z,23.40
2022-08-12T06:03:46.050Z,23.50
2022-08-12T06:08:53.622Z,23.70
2022-08-12T06:13:58.523Z,23.90
2022-08-12T06:19:01.296Z,24.20
2022-08-12T06:24:04.444Z,24.40
2022-08-12T06:29:06.896Z,24.70
2022-08-12T06:35:23.226Z,24.70
2022-08-12T06:39:33.361Z,24.90
2022-08-12T06:44:35.693Z,25.10
2022-08-12T06:49:38.007Z,25.30
2022-08-12T06:54:42.914Z,25.80
2022-08-12T06:59:45.166Z,26.20
2022-08-12T07:04:48.212Z,26.70
2022-08-12T07:10:00.034Z,28.00
2022-08-12T07:15:08.447Z,31.60
2022-08-12T07:20:51.350Z,34.80
2022-08-12T07:25:37.902Z,36.40
2022-08-12T07:30:46.232Z,37.20
2022-08-12T07:35:51.154Z,36.20
2022-08-12T07:40:58.176Z,34.20
2022-08-12T07:46:00.865Z,33.50
2022-08-12T07:51:04.309Z,33.10
2022-08-12T07:56:10.055Z,32.80
2022-08-12T08:01:15.989Z,31.90
2022-08-12T08:06:19.252Z,31.60
2022-08-12T08:11:43.674Z,31.60
2022-08-12T08:16:46.457Z,31.70
2022-08-12T08:21:48.770Z,31.30
2022-08-12T08:26:54.069Z,31.00
2022-08-12T08:32:00.494Z,30.70
2022-08-12T08:37:03.989Z,30.10
2022-08-12T08:42:29.887Z,29.90
2022-08-12T08:47:32.178Z,29.70
2022-08-12T08:52:39.749Z,29.40
2022-08-12T08:58:03.323Z,29.10
2022-08-12T09:04:21.545Z,28.90
2022-08-12T09:08:30.039Z,28.80
2022-08-12T09:14:10.961Z,28.60
2022-08-12T09:18:57.079Z,28.20
2022-08-12T09:24:05.794Z,28.10
2022-08-12T09:29:12.427Z,28.20
2022-08-12T09:34:29.456Z,27.90
2022-08-12T09:40:02.544Z,27.70
2022-08-12T09:45:23.636Z,27.80
2022-08-12T09:50:27.263Z,27.60
2022-08-12T09:56:56.694Z,27.40
2022-08-12T10:00:54.560Z,27.10
2022-08-12T10:06:27.602Z,26.90
2022-08-12T10:11:41.369Z,27.10
2022-08-12T10:17:01.668Z,27.00
2022-08-12T10:22:06.682Z,27.00
2022-08-12T10:28:04.537Z,26.90
2022-08-12T10:33:02.526Z,26.80
2022-08-12T10:38:35.029Z,27.00
2022-08-12T10:43:55.582Z,26.80
2022-08-12T10:49:07.061Z,26.90
2022-08-12T10:54:26.877Z,26.90
2022-08-12T11:00:01.442Z,26.80
2022-08-12T11:04:59.103Z,26.60
2022-08-12T11:10:20.902Z,26.40
2022-08-12T11:16:02.676Z,26.50
2022-08-12T11:20:52.093Z,26.40
2022-08-12T11:25:57.733Z,26.40
2022-08-12T11:31:01.593Z,26.50
2022-08-12T11:36:15.644Z,26.20
2022-08-12T11:41:31.862Z,26.30
2022-08-12T11:46:37.100Z,26.30
2022-08-12T11:51:40.058Z,26.20
2022-08-12T11:56:44.811Z,26.10
2022-08-12T12:02:05.197Z,26.10
2022-08-12T12:07:11.359Z,25.70
2022-08-12T12:12:14.915Z,25.60
2022-08-12T12:17:17.763Z,25.40
2022-08-12T12:22:26.796Z,25.40
2022-08-12T12:28:05.984Z,25.20
2022-08-12T12:33:10.368Z,25.00
2022-08-12T12:38:20.144Z,25.00
2022-08-12T12:43:29.063Z,25.20
2022-08-12T12:48:45.496Z,25.20
2022-08-12T12:54:06.210Z,25.30
2022-08-12T12:59:55.810Z,25.10
2022-08-12T13:04:34.948Z,25.10
2022-08-12T13:09:37.546Z,24.90
2022-08-12T13:14:40.370Z,25.00
2022-08-12T13:19:45.378Z,25.00
2022-08-12T13:24:56.056Z,24.90
2022-08-12T13:30:03.795Z,24.80
2022-08-12T13:35:20.229Z,25.00
2022-08-12T13:40:31.779Z,25.10
2022-08-12T13:45:35.686Z,25.00
2022-08-12T13:50:41.055Z,24.90
2022-08-12T13:55:45.994Z,24.90
2022-08-12T14:00:52.287Z,25.00
2022-08-12T14:05:59.491Z,24.90
2022-08-12T14:11:02.427Z,24.90
2022-08-12T14:16:11.028Z,24.80
2022-08-12T14:21:18.202Z,24.70
2022-08-12T14:26:25.399Z,24.90
2022-08-12T14:31:31.495Z,24.90
2022-08-12T14:36:34.513Z,24.80
2022-08-12T14:41:48.299Z,24.80
2022-08-12T14:46:56.998Z,24.70
2022-08-12T14:52:44.147Z,25.00
2022-08-12T14:57:24.619Z,25.00
2022-08-12T15:02:38.213Z,25.00
2022-08-12T15:07:49.020Z,24.90
2022-08-12T15:12:58.230Z,24.70
2022-08-12T15:18:02.031Z,24.50
2022-08-12T15:23:17.446Z,24.60
2022-08-12T15:28:27.149Z,24.70
2022-08-12T15:33:45.268Z,24.80
2022-08-12T15:38:49.995Z,24.80
2022-08-12T15:44:36.637Z,24.90
2022-08-12T15:49:19.229Z,24.90
2022-08-12T15:54:33.221Z,24.90
2022-08-12T16:00:00.409Z,24.70
2022-08-12T16:05:01.268Z,24.70
2022-08-12T16:10:08.507Z,24.70
2022-08-12T16:15:13.653Z,24.70
2022-08-12T16:20:21.811Z,24.70
2022-08-12T16:26:02.975Z,24.80
2022-08-12T16:30:54.019Z,24.80
2022-08-12T16:35:56.297Z,24.70
2022-08-12T16:40:58.820Z,24.90
2022-08-12T16:46:31.130Z,24.90
2022-08-12T16:51:26.983Z,24.80
2022-08-12T16:56:29.383Z,24.90
2022-08-12T17:01:36.763Z,24.90
2022-08-12T17:06:43.368Z,25.10
2022-08-12T17:11:49.231Z,25.10
2022-08-12T17:16:55.149Z,25.10
2022-08-12T17:22:02.202Z,25.30
2022-08-12T17:27:15.994Z,25.30
2022-08-12T17:32:25.630Z,25.30
2022-08-12T17:37:33.933Z,25.40
2022-08-12T17:42:38.446Z,25.40
2022-08-12T17:47:41.814Z,25.40
2022-08-12T17:52:45.223Z,25.40
2022-08-12T17:57:55.620Z,25.50
2022-08-12T18:02:59.872Z,25.40
2022-08-12T18:08:05.727Z,25.40
2022-08-12T18:13:13.018Z,25.40
2022-08-12T18:18:35.890Z,25.30
2022-08-12T18:23:50.711Z,25.30
2022-08-12T18:28:57.092Z,25.30
2022-08-12T18:34:03.116Z,25.30
2022-08-12T18:39:07.464Z,25.30
2022-08-12T18:44:12.276Z,25.20
2022-08-12T18:49:23.750Z,25.20
2022-08-12T18:54:35.200Z,25.10
2022-08-12T19:00:00.165Z,25.10
2022-08-12T19:05:09.994Z,25.10
2022-08-12T19:10:13.823Z,25.00
2022-08-12T19:15:16.141Z,25.00
2022-08-12T19:20:21.127Z,25.10
2022-08-12T19:25:59.693Z,25.00
2022-08-12T19:31:09.918Z,25.00
2022-08-12T19:36:25.395Z,24.90
2022-08-12T19:41:42.575Z,24.90
2022-08-12T19:46:53.291Z,25.00
2022-08-12T19:51:55.751Z,25.00
2022-08-12T19:56:59.369Z,24.90
2022-08-12T20:02:07.581Z,24.90
2022-08-12T20:07:23.092Z,24.80
2022-08-12T20:12:32.888Z,24.90
2022-08-12T20:17:51.062Z,24.70
2022-08-12T20:22:53.887Z,24.80
2022-08-12T20:28:04.252Z,24.80
2022-08-12T20:33:17.548Z,25.00
2022-08-12T20:38:26.335Z,25.00
2022-08-12T20:43:33.712Z,24.70
2022-08-12T20:48:36.058Z,24.70
2022-08-12T20:53:54.154Z,24.80
2022-08-12T20:59:09.643Z,24.80
2022-08-12T21:04:32.937Z,24.80
2022-08-12T21:09:40.726Z,24.80
2022-08-12T21:14:53.234Z,24.80
2022-08-12T21:20:04.614Z,24.80
2022-08-12T21:25:14.397Z,24.80
2022-08-12T21:30:19.406Z,24.80
2022-08-12T21:35:22.489Z,24.80
2022-08-12T21:40:37.216Z,24.70
2022-08-12T21:46:00.013Z,24.70
2022-08-12T21:51:22.734Z,24.70
2022-08-12T21:56:34.872Z,24.70
2022-08-12T22:01:44.282Z,24.60
2022-08-12T22:06:53.645Z,24.60
2022-08-12T22:12:20.232Z,24.60
2022-08-12T22:17:49.479Z,24.60
2022-08-12T22:22:56.216Z,24.50
2022-08-12T22:28:24.596Z,24.50
2022-08-12T22:33:27.220Z,24.50
2022-08-12T22:38:30.054Z,24.50
2022-08-12T22:43:58.908Z,24.40
2022-08-12T22:49:06.700Z,24.30
2022-08-12T22:54:35.976Z,24.30
2022-08-12T22:59:55.090Z,24.30
2022-08-12T23:04:56.743Z,24.30
2022-08-12T23:09:59.010Z,24.30
2022-08-12T23:15:04.745Z,24.30
2022-08-12T23:20:07.676Z,24.30
2022-08-12T23:25:18.878Z,24.20
2022-08-12T23:30:31.850Z,24.30
2022-08-12T23:35:53.981Z,24.20
2022-08-12T23:41:01.417Z,24.20
2022-08-12T23:46:06.338Z,24.20
2022-08-12T23:51:22.275Z,24.20
2022-08-12T23:56:26.562Z,24.20
